sensor_id;sensor_type;location;lat;lon;timestamp;P1;durP1;ratioP1;P2;durP2;ratioP2
23800;SDS011;12081;48.614;10.226;2023-08-20T00:02:43;9.88;;;6.78;;
23800;SDS011;12081;48.614;10.226;2023-08-20T00:05:30;9.02;;;6.82;;
23800;SDS011;12081;48.614;10.226;2023-08-20T00:08:15;8.63;;;6.93;;
23800;SDS011;12081;48.614;10.226;2023-08-20T00:11:00;9.93;;;6.57;;
23800;SDS011;12081;48.614;10.226;2023-08-20T00:13:44;16.60;;;7.50;;
23800;SDS011;12081;48.614;10.226;2023-08-20T00:16:29;7.68;;;6.88;;
23800;SDS011;12081;48.614;10.226;2023-08-20T00:19:13;8.20;;;7.28;;
23800;SDS011;12081;48.614;10.226;2023-08-20T00:21:58;7.90;;;6.63;;
23800;SDS011;12081;48.614;10.226;2023-08-20T00:24:43;7.57;;;6.90;;
23800;SDS011;12081;48.614;10.226;2023-08-20T00:27:27;7.35;;;6.72;;
23800;SDS011;12081;48.614;10.226;2023-08-20T00:30:12;8.05;;;6.93;;
23800;SDS011;12081;48.614;10.226;2023-08-20T00:32:56;7.60;;;6.82;;
23800;SDS011;12081;48.614;10.226;2023-08-20T00:35:40;8.48;;;7.78;;
23800;SDS011;12081;48.614;10.226;2023-08-20T00:38:24;12.37;;;8.77;;
23800;SDS011;12081;48.614;10.226;2023-08-20T00:41:09;11.00;;;9.18;;
23800;SDS011;12081;48.614;10.226;2023-08-20T00:43:53;10.10;;;8.25;;
23800;SDS011;12081;48.614;10.226;2023-08-20T00:46:38;10.55;;;8.48;;
23800;SDS011;12081;48.614;10.226;2023-08-20T01:04:23;10.98;;;8.95;;
23800;SDS011;12081;48.614;10.226;2023-08-20T01:16:50;11.27;;;9.82;;
23800;SDS011;12081;48.614;10.226;2023-08-20T01:25:44;10.40;;;9.13;;
23800;SDS011;12081;48.614;10.226;2023-08-20T01:42:08;11.57;;;8.70;;
23800;SDS011;12081;48.614;10.226;2023-08-20T01:44:53;11.50;;;7.93;;
23800;SDS011;12081;48.614;10.226;2023-08-20T01:47:37;9.82;;;8.15;;
23800;SDS011;12081;48.614;10.226;2023-08-20T02:47:56;11.48;;;8.15;;
23800;SDS011;12081;48.614;10.226;2023-08-20T02:50:41;14.93;;;8.67;;
23800;SDS011;12081;48.614;10.226;2023-08-20T02:53:25;12.30;;;8.83;;
23800;SDS011;12081;48.614;10.226;2023-08-20T02:56:09;13.30;;;8.63;;
23800;SDS011;12081;48.614;10.226;2023-08-20T02:58:54;9.30;;;8.40;;
23800;SDS011;12081;48.614;10.226;2023-08-20T03:01:38;11.70;;;8.97;;
23800;SDS011;12081;48.614;10.226;2023-08-20T03:04:23;11.43;;;10.27;;
23800;SDS011;12081;48.614;10.226;2023-08-20T03:07:07;12.50;;;10.07;;
23800;SDS011;12081;48.614;10.226;2023-08-20T03:09:51;12.67;;;11.07;;
23800;SDS011;12081;48.614;10.226;2023-08-20T03:12:35;10.57;;;9.50;;
23800;SDS011;12081;48.614;10.226;2023-08-20T03:15:19;11.67;;;10.43;;
23800;SDS011;12081;48.614;10.226;2023-08-20T03:18:03;12.67;;;11.47;;
23800;SDS011;12081;48.614;10.226;2023-08-20T03:20:49;14.30;;;11.63;;
23800;SDS011;12081;48.614;10.226;2023-08-20T03:23:33;11.70;;;10.40;;
23800;SDS011;12081;48.614;10.226;2023-08-20T03:26:17;11.32;;;10.10;;
23800;SDS011;12081;48.614;10.226;2023-08-20T03:29:02;12.13;;;11.00;;
23800;SDS011;12081;48.614;10.226;2023-08-20T03:31:47;11.53;;;10.53;;
23800;SDS011;12081;48.614;10.226;2023-08-20T03:34:31;11.80;;;10.13;;
23800;SDS011;12081;48.614;10.226;2023-08-20T03:37:15;11.23;;;9.87;;
23800;SDS011;12081;48.614;10.226;2023-08-20T03:39:59;11.57;;;10.00;;
23800;SDS011;12081;48.614;10.226;2023-08-20T03:42:44;14.33;;;10.00;;
23800;SDS011;12081;48.614;10.226;2023-08-20T03:45:28;12.17;;;10.43;;
23800;SDS011;12081;48.614;10.226;2023-08-20T03:48:14;11.83;;;10.63;;
23800;SDS011;12081;48.614;10.226;2023-08-20T03:50:58;13.32;;;10.82;;
23800;SDS011;12081;48.614;10.226;2023-08-20T05:34:54;13.38;;;10.93;;
23800;SDS011;12081;48.614;10.226;2023-08-20T05:37:39;13.35;;;11.02;;
23800;SDS011;12081;48.614;10.226;2023-08-20T05:40:23;14.40;;;11.30;;
23800;SDS011;12081;48.614;10.226;2023-08-20T05:43:07;13.13;;;11.90;;
23800;SDS011;12081;48.614;10.226;2023-08-20T05:45:51;12.13;;;11.02;;
23800;SDS011;12081;48.614;10.226;2023-08-20T05:48:35;11.65;;;10.45;;
23800;SDS011;12081;48.614;10.226;2023-08-20T05:51:20;11.68;;;10.60;;
23800;SDS011;12081;48.614;10.226;2023-08-20T05:54:05;10.88;;;9.75;;
23800;SDS011;12081;48.614;10.226;2023-08-20T05:56:49;13.65;;;10.63;;
23800;SDS011;12081;48.614;10.226;2023-08-20T05:59:33;12.23;;;9.70;;
23800;SDS011;12081;48.614;10.226;2023-08-20T06:02:18;10.15;;;9.20;;
23800;SDS011;12081;48.614;10.226;2023-08-20T06:05:02;10.10;;;9.10;;
23800;SDS011;12081;48.614;10.226;2023-08-20T06:07:48;10.05;;;9.15;;
23800;SDS011;12081;48.614;10.226;2023-08-20T06:10:32;10.40;;;9.30;;
23800;SDS011;12081;48.614;10.226;2023-08-20T06:13:16;12.50;;;9.23;;
23800;SDS011;12081;48.614;10.226;2023-08-20T06:16:00;12.30;;;9.38;;
23800;SDS011;12081;48.614;10.226;2023-08-20T06:18:44;11.20;;;9.27;;
23800;SDS011;12081;48.614;10.226;2023-08-20T06:21:29;11.38;;;8.65;;
23800;SDS011;12081;48.614;10.226;2023-08-20T06:24:13;10.93;;;8.80;;
23800;SDS011;12081;48.614;10.226;2023-08-20T06:26:57;8.63;;;7.75;;
23800;SDS011;12081;48.614;10.226;2023-08-20T06:29:41;8.38;;;7.50;;
23800;SDS011;12081;48.614;10.226;2023-08-20T06:32:25;10.25;;;7.80;;
23800;SDS011;12081;48.614;10.226;2023-08-20T06:35:09;8.93;;;7.65;;
23800;SDS011;12081;48.614;10.226;2023-08-20T06:37:54;8.25;;;7.47;;
23800;SDS011;12081;48.614;10.226;2023-08-20T06:40:38;8.43;;;7.38;;
23800;SDS011;12081;48.614;10.226;2023-08-20T06:43:22;7.68;;;6.88;;
23800;SDS011;12081;48.614;10.226;2023-08-20T06:46:06;7.53;;;6.75;;
23800;SDS011;12081;48.614;10.226;2023-08-20T06:48:50;7.40;;;6.47;;
23800;SDS011;12081;48.614;10.226;2023-08-20T06:51:34;13.45;;;6.90;;
23800;SDS011;12081;48.614;10.226;2023-08-20T06:54:18;9.00;;;7.30;;
23800;SDS011;12081;48.614;10.226;2023-08-20T06:57:02;6.70;;;6.10;;
23800;SDS011;12081;48.614;10.226;2023-08-20T06:59:47;9.82;;;6.57;;
23800;SDS011;12081;48.614;10.226;2023-08-20T07:02:31;11.02;;;5.68;;
23800;SDS011;12081;48.614;10.226;2023-08-20T07:05:15;6.45;;;5.82;;
23800;SDS011;12081;48.614;10.226;2023-08-20T07:08:00;10.30;;;5.70;;
23800;SDS011;12081;48.614;10.226;2023-08-20T07:10:44;9.48;;;6.05;;
23800;SDS011;12081;48.614;10.226;2023-08-20T07:13:28;8.20;;;5.70;;
23800;SDS011;12081;48.614;10.226;2023-08-20T07:16:13;7.10;;;5.63;;
23800;SDS011;12081;48.614;10.226;2023-08-20T07:18:57;7.03;;;5.65;;
23800;SDS011;12081;48.614;10.226;2023-08-20T07:21:41;7.72;;;5.05;;
23800;SDS011;12081;48.614;10.226;2023-08-20T07:24:25;9.55;;;5.60;;
23800;SDS011;12081;48.614;10.226;2023-08-20T07:27:10;7.30;;;5.22;;
23800;SDS011;12081;48.614;10.226;2023-08-20T07:29:56;6.07;;;5.47;;
23800;SDS011;12081;48.614;10.226;2023-08-20T07:32:40;12.05;;;5.25;;
23800;SDS011;12081;48.614;10.226;2023-08-20T07:35:34;8.27;;;4.68;;
23800;SDS011;12081;48.614;10.226;2023-08-20T07:38:28;4.85;;;4.35;;
23800;SDS011;12081;48.614;10.226;2023-08-20T07:41:12;6.07;;;4.82;;
23800;SDS011;12081;48.614;10.226;2023-08-20T07:43:56;7.93;;;5.18;;
23800;SDS011;12081;48.614;10.226;2023-08-20T07:46:41;8.52;;;5.03;;
23800;SDS011;12081;48.614;10.226;2023-08-20T07:49:25;5.65;;;4.57;;
23800;SDS011;12081;48.614;10.226;2023-08-20T07:52:09;8.88;;;4.65;;
23800;SDS011;12081;48.614;10.226;2023-08-20T07:54:53;8.48;;;4.97;;
23800;SDS011;12081;48.614;10.226;2023-08-20T07:57:37;9.30;;;5.13;;
23800;SDS011;12081;48.614;10.226;2023-08-20T08:00:21;7.20;;;4.90;;
23800;SDS011;12081;48.614;10.226;2023-08-20T08:03:05;5.00;;;4.38;;
23800;SDS011;12081;48.614;10.226;2023-08-20T08:05:49;7.93;;;4.80;;
23800;SDS011;12081;48.614;10.226;2023-08-20T08:08:34;6.25;;;4.10;;
23800;SDS011;12081;48.614;10.226;2023-08-20T08:11:18;6.50;;;4.38;;
23800;SDS011;12081;48.614;10.226;2023-08-20T08:14:02;7.28;;;4.72;;
23800;SDS011;12081;48.614;10.226;2023-08-20T08:16:47;8.32;;;4.47;;
23800;SDS011;12081;48.614;10.226;2023-08-20T08:19:31;6.28;;;4.55;;
23800;SDS011;12081;48.614;10.226;2023-08-20T08:22:15;7.88;;;4.80;;
23800;SDS011;12081;48.614;10.226;2023-08-20T08:24:59;5.72;;;4.45;;
23800;SDS011;12081;48.614;10.226;2023-08-20T08:27:43;12.55;;;4.32;;
23800;SDS011;12081;48.614;10.226;2023-08-20T08:30:27;4.90;;;4.22;;
23800;SDS011;12081;48.614;10.226;2023-08-20T08:33:13;5.95;;;4.43;;
23800;SDS011;12081;48.614;10.226;2023-08-20T08:35:57;7.68;;;4.95;;
23800;SDS011;12081;48.614;10.226;2023-08-20T08:38:44;6.35;;;4.65;;
23800;SDS011;12081;48.614;10.226;2023-08-20T08:41:28;7.38;;;4.75;;
23800;SDS011;12081;48.614;10.226;2023-08-20T08:44:14;6.72;;;4.60;;
23800;SDS011;12081;48.614;10.226;2023-08-20T08:47:02;5.53;;;5.03;;
23800;SDS011;12081;48.614;10.226;2023-08-20T08:49:48;5.00;;;4.50;;
23800;SDS011;12081;48.614;10.226;2023-08-20T08:52:32;7.70;;;5.22;;
23800;SDS011;12081;48.614;10.226;2023-08-20T08:55:17;9.32;;;4.95;;
23800;SDS011;12081;48.614;10.226;2023-08-20T08:58:01;9.20;;;4.78;;
23800;SDS011;12081;48.614;10.226;2023-08-20T09:00:45;7.07;;;4.47;;
23800;SDS011;12081;48.614;10.226;2023-08-20T09:03:30;6.78;;;4.47;;
23800;SDS011;12081;48.614;10.226;2023-08-20T09:06:14;5.10;;;4.55;;
23800;SDS011;12081;48.614;10.226;2023-08-20T09:09:05;6.60;;;4.70;;
23800;SDS011;12081;48.614;10.226;2023-08-20T09:11:50;6.82;;;4.85;;
23800;SDS011;12081;48.614;10.226;2023-08-20T09:14:34;7.85;;;5.03;;
23800;SDS011;12081;48.614;10.226;2023-08-20T09:17:18;5.35;;;4.18;;
23800;SDS011;12081;48.614;10.226;2023-08-20T09:20:03;7.07;;;4.55;;
23800;SDS011;12081;48.614;10.226;2023-08-20T09:22:51;6.40;;;4.80;;
23800;SDS011;12081;48.614;10.226;2023-08-20T09:25:35;5.68;;;4.60;;
23800;SDS011;12081;48.614;10.226;2023-08-20T09:28:19;6.20;;;4.22;;
23800;SDS011;12081;48.614;10.226;2023-08-20T09:31:04;4.88;;;4.35;;
23800;SDS011;12081;48.614;10.226;2023-08-20T09:33:52;4.32;;;3.60;;
23800;SDS011;12081;48.614;10.226;2023-08-20T09:36:40;9.55;;;4.05;;
23800;SDS011;12081;48.614;10.226;2023-08-20T09:39:28;8.13;;;3.92;;
23800;SDS011;12081;48.614;10.226;2023-08-20T09:42:13;4.93;;;3.45;;
23800;SDS011;12081;48.614;10.226;2023-08-20T09:44:57;10.68;;;4.13;;
23800;SDS011;12081;48.614;10.226;2023-08-20T09:47:45;8.55;;;3.55;;
23800;SDS011;12081;48.614;10.226;2023-08-20T09:50:32;6.07;;;3.80;;
23800;SDS011;12081;48.614;10.226;2023-08-20T09:53:29;6.60;;;3.80;;
23800;SDS011;12081;48.614;10.226;2023-08-20T09:56:24;11.23;;;4.10;;
23800;SDS011;12081;48.614;10.226;2023-08-20T09:59:15;5.72;;;3.63;;
23800;SDS011;12081;48.614;10.226;2023-08-20T10:02:01;6.38;;;3.53;;
23800;SDS011;12081;48.614;10.226;2023-08-20T10:04:45;5.25;;;3.03;;
23800;SDS011;12081;48.614;10.226;2023-08-20T10:07:31;7.57;;;3.83;;
23800;SDS011;12081;48.614;10.226;2023-08-20T10:10:17;7.05;;;3.95;;
23800;SDS011;12081;48.614;10.226;2023-08-20T10:13:02;6.25;;;3.40;;
23800;SDS011;12081;48.614;10.226;2023-08-20T10:15:48;7.50;;;3.78;;
23800;SDS011;12081;48.614;10.226;2023-08-20T10:18:34;6.75;;;3.45;;
23800;SDS011;12081;48.614;10.226;2023-08-20T10:21:19;9.88;;;3.60;;
23800;SDS011;12081;48.614;10.226;2023-08-20T10:24:07;4.20;;;3.25;;
23800;SDS011;12081;48.614;10.226;2023-08-20T10:27:07;6.97;;;3.85;;
23800;SDS011;12081;48.614;10.226;2023-08-20T10:29:53;8.32;;;3.60;;
23800;SDS011;12081;48.614;10.226;2023-08-20T10:38:22;8.38;;;3.38;;
23800;SDS011;12081;48.614;10.226;2023-08-20T10:41:07;7.15;;;3.60;;
23800;SDS011;12081;48.614;10.226;2023-08-20T10:43:57;5.47;;;3.42;;
23800;SDS011;12081;48.614;10.226;2023-08-20T10:46:49;8.88;;;3.90;;
23800;SDS011;12081;48.614;10.226;2023-08-20T10:49:37;5.25;;;3.47;;
23800;SDS011;12081;48.614;10.226;2023-08-20T10:52:24;6.53;;;3.50;;
23800;SDS011;12081;48.614;10.226;2023-08-20T10:55:08;5.90;;;3.28;;
23800;SDS011;12081;48.614;10.226;2023-08-20T10:57:57;6.43;;;3.35;;
23800;SDS011;12081;48.614;10.226;2023-08-20T11:00:42;9.93;;;3.92;;
23800;SDS011;12081;48.614;10.226;2023-08-20T11:03:26;5.57;;;3.17;;
23800;SDS011;12081;48.614;10.226;2023-08-20T11:06:11;7.53;;;3.20;;
23800;SDS011;12081;48.614;10.226;2023-08-20T11:08:55;6.70;;;3.25;;
23800;SDS011;12081;48.614;10.226;2023-08-20T11:11:41;9.55;;;3.65;;
23800;SDS011;12081;48.614;10.226;2023-08-20T11:14:26;7.85;;;3.05;;
23800;SDS011;12081;48.614;10.226;2023-08-20T11:17:10;5.70;;;3.38;;
23800;SDS011;12081;48.614;10.226;2023-08-20T11:19:55;10.57;;;3.25;;
23800;SDS011;12081;48.614;10.226;2023-08-20T11:22:39;5.50;;;3.10;;
23800;SDS011;12081;48.614;10.226;2023-08-20T11:25:24;4.97;;;3.30;;
23800;SDS011;12081;48.614;10.226;2023-08-20T11:28:09;5.53;;;2.97;;
23800;SDS011;12081;48.614;10.226;2023-08-20T11:30:53;4.63;;;2.90;;
23800;SDS011;12081;48.614;10.226;2023-08-20T11:33:39;6.45;;;2.95;;
23800;SDS011;12081;48.614;10.226;2023-08-20T11:36:24;7.53;;;3.00;;
23800;SDS011;12081;48.614;10.226;2023-08-20T11:39:08;5.65;;;3.28;;
23800;SDS011;12081;48.614;10.226;2023-08-20T11:41:52;5.47;;;3.45;;
23800;SDS011;12081;48.614;10.226;2023-08-20T11:44:43;5.85;;;2.75;;
23800;SDS011;12081;48.614;10.226;2023-08-20T11:47:29;4.43;;;2.85;;
23800;SDS011;12081;48.614;10.226;2023-08-20T11:50:13;6.97;;;3.40;;
23800;SDS011;12081;48.614;10.226;2023-08-20T11:52:57;7.95;;;3.28;;
23800;SDS011;12081;48.614;10.226;2023-08-20T11:55:44;6.97;;;3.10;;
23800;SDS011;12081;48.614;10.226;2023-08-20T11:58:28;8.82;;;2.50;;
23800;SDS011;12081;48.614;10.226;2023-08-20T12:01:13;7.35;;;2.38;;
23800;SDS011;12081;48.614;10.226;2023-08-20T12:04:04;5.18;;;3.13;;
23800;SDS011;12081;48.614;10.226;2023-08-20T12:07:01;5.45;;;2.67;;
23800;SDS011;12081;48.614;10.226;2023-08-20T12:09:47;8.00;;;2.67;;
23800;SDS011;12081;48.614;10.226;2023-08-20T12:12:31;5.47;;;2.92;;
23800;SDS011;12081;48.614;10.226;2023-08-20T12:15:18;7.47;;;2.90;;
23800;SDS011;12081;48.614;10.226;2023-08-20T12:18:03;4.78;;;2.78;;
23800;SDS011;12081;48.614;10.226;2023-08-20T12:20:48;5.90;;;2.50;;
23800;SDS011;12081;48.614;10.226;2023-08-20T12:23:32;7.18;;;3.10;;
23800;SDS011;12081;48.614;10.226;2023-08-20T12:26:16;3.58;;;2.47;;
23800;SDS011;12081;48.614;10.226;2023-08-20T12:29:00;5.53;;;2.58;;
23800;SDS011;12081;48.614;10.226;2023-08-20T12:31:44;8.63;;;2.80;;
23800;SDS011;12081;48.614;10.226;2023-08-20T12:34:28;5.75;;;2.40;;
23800;SDS011;12081;48.614;10.226;2023-08-20T12:37:13;4.13;;;2.40;;
23800;SDS011;12081;48.614;10.226;2023-08-20T12:39:57;5.78;;;2.35;;
23800;SDS011;12081;48.614;10.226;2023-08-20T12:42:41;8.20;;;2.83;;
23800;SDS011;12081;48.614;10.226;2023-08-20T12:45:25;6.68;;;3.40;;
23800;SDS011;12081;48.614;10.226;2023-08-20T12:48:09;6.22;;;3.13;;
23800;SDS011;12081;48.614;10.226;2023-08-20T12:50:53;4.53;;;2.55;;
23800;SDS011;12081;48.614;10.226;2023-08-20T12:53:37;7.30;;;2.75;;
23800;SDS011;12081;48.614;10.226;2023-08-20T12:56:21;9.18;;;2.83;;
23800;SDS011;12081;48.614;10.226;2023-08-20T12:59:05;4.28;;;2.55;;
23800;SDS011;12081;48.614;10.226;2023-08-20T13:01:49;6.10;;;2.95;;
23800;SDS011;12081;48.614;10.226;2023-08-20T13:04:33;4.45;;;2.63;;
23800;SDS011;12081;48.614;10.226;2023-08-20T13:07:18;5.57;;;3.28;;
23800;SDS011;12081;48.614;10.226;2023-08-20T13:10:03;7.22;;;2.75;;
23800;SDS011;12081;48.614;10.226;2023-08-20T13:12:48;6.88;;;2.90;;
23800;SDS011;12081;48.614;10.226;2023-08-20T13:15:34;4.47;;;2.97;;
23800;SDS011;12081;48.614;10.226;2023-08-20T13:18:19;8.30;;;3.08;;
23800;SDS011;12081;48.614;10.226;2023-08-20T13:21:08;4.18;;;2.83;;
23800;SDS011;12081;48.614;10.226;2023-08-20T13:23:52;6.03;;;2.95;;
23800;SDS011;12081;48.614;10.226;2023-08-20T13:26:36;4.85;;;2.67;;
23800;SDS011;12081;48.614;10.226;2023-08-20T13:29:20;5.05;;;2.85;;
23800;SDS011;12081;48.614;10.226;2023-08-20T13:32:04;5.43;;;2.97;;
23800;SDS011;12081;48.614;10.226;2023-08-20T13:34:49;6.75;;;2.80;;
23800;SDS011;12081;48.614;10.226;2023-08-20T13:37:34;4.78;;;2.58;;
23800;SDS011;12081;48.614;10.226;2023-08-20T13:40:18;5.55;;;2.85;;
23800;SDS011;12081;48.614;10.226;2023-08-20T13:43:02;4.53;;;2.70;;
23800;SDS011;12081;48.614;10.226;2023-08-20T13:45:47;5.93;;;3.10;;
23800;SDS011;12081;48.614;10.226;2023-08-20T13:48:31;11.30;;;2.70;;
23800;SDS011;12081;48.614;10.226;2023-08-20T13:51:15;7.65;;;2.40;;
23800;SDS011;12081;48.614;10.226;2023-08-20T13:53:59;5.75;;;3.13;;
23800;SDS011;12081;48.614;10.226;2023-08-20T13:56:43;8.25;;;2.92;;
23800;SDS011;12081;48.614;10.226;2023-08-20T13:59:27;6.00;;;2.72;;
23800;SDS011;12081;48.614;10.226;2023-08-20T14:02:11;6.60;;;3.20;;
23800;SDS011;12081;48.614;10.226;2023-08-20T14:04:55;8.10;;;3.20;;
23800;SDS011;12081;48.614;10.226;2023-08-20T14:07:39;6.60;;;2.85;;
23800;SDS011;12081;48.614;10.226;2023-08-20T14:10:25;5.75;;;3.28;;
23800;SDS011;12081;48.614;10.226;2023-08-20T14:13:09;6.32;;;3.00;;
23800;SDS011;12081;48.614;10.226;2023-08-20T14:15:53;6.65;;;2.97;;
23800;SDS011;12081;48.614;10.226;2023-08-20T14:18:37;8.52;;;3.17;;
23800;SDS011;12081;48.614;10.226;2023-08-20T14:21:21;9.55;;;2.90;;
23800;SDS011;12081;48.614;10.226;2023-08-20T14:24:06;5.45;;;2.78;;
23800;SDS011;12081;48.614;10.226;2023-08-20T14:26:50;6.35;;;3.03;;
23800;SDS011;12081;48.614;10.226;2023-08-20T14:29:34;6.75;;;2.88;;
23800;SDS011;12081;48.614;10.226;2023-08-20T14:32:19;7.70;;;3.75;;
23800;SDS011;12081;48.614;10.226;2023-08-20T14:35:03;7.22;;;2.92;;
23800;SDS011;12081;48.614;10.226;2023-08-20T14:37:48;5.72;;;2.97;;
23800;SDS011;12081;48.614;10.226;2023-08-20T14:40:32;6.03;;;2.75;;
23800;SDS011;12081;48.614;10.226;2023-08-20T14:43:19;4.47;;;3.05;;
23800;SDS011;12081;48.614;10.226;2023-08-20T14:46:03;4.80;;;3.00;;
23800;SDS011;12081;48.614;10.226;2023-08-20T14:48:47;6.50;;;2.80;;
23800;SDS011;12081;48.614;10.226;2023-08-20T14:51:32;4.60;;;3.08;;
23800;SDS011;12081;48.614;10.226;2023-08-20T14:54:17;6.15;;;3.25;;
23800;SDS011;12081;48.614;10.226;2023-08-20T14:57:02;5.60;;;2.97;;
23800;SDS011;12081;48.614;10.226;2023-08-20T14:59:46;3.95;;;2.72;;
23800;SDS011;12081;48.614;10.226;2023-08-20T15:02:30;8.52;;;3.25;;
23800;SDS011;12081;48.614;10.226;2023-08-20T15:05:14;10.00;;;3.30;;
23800;SDS011;12081;48.614;10.226;2023-08-20T15:07:58;5.47;;;3.17;;
23800;SDS011;12081;48.614;10.226;2023-08-20T15:10:43;6.57;;;2.90;;
23800;SDS011;12081;48.614;10.226;2023-08-20T15:16:21;6.32;;;2.80;;
23800;SDS011;12081;48.614;10.226;2023-08-20T15:21:53;6.30;;;2.85;;
23800;SDS011;12081;48.614;10.226;2023-08-20T15:24:45;4.13;;;2.85;;
23800;SDS011;12081;48.614;10.226;2023-08-20T15:27:30;5.95;;;3.80;;
23800;SDS011;12081;48.614;10.226;2023-08-20T15:30:15;6.55;;;2.90;;
23800;SDS011;12081;48.614;10.226;2023-08-20T15:33:00;6.72;;;3.15;;
23800;SDS011;12081;48.614;10.226;2023-08-20T15:35:44;7.60;;;3.10;;
23800;SDS011;12081;48.614;10.226;2023-08-20T15:38:28;5.63;;;3.40;;
23800;SDS011;12081;48.614;10.226;2023-08-20T15:41:13;7.45;;;3.33;;
23800;SDS011;12081;48.614;10.226;2023-08-20T15:43:58;8.07;;;3.20;;
23800;SDS011;12081;48.614;10.226;2023-08-20T15:46:43;3.88;;;3.00;;
23800;SDS011;12081;48.614;10.226;2023-08-20T15:49:27;6.57;;;3.08;;
23800;SDS011;12081;48.614;10.226;2023-08-20T15:52:11;5.75;;;3.15;;
23800;SDS011;12081;48.614;10.226;2023-08-20T15:54:55;5.18;;;3.15;;
23800;SDS011;12081;48.614;10.226;2023-08-20T15:57:39;6.25;;;2.90;;
23800;SDS011;12081;48.614;10.226;2023-08-20T16:00:24;5.65;;;3.08;;
23800;SDS011;12081;48.614;10.226;2023-08-20T16:03:09;7.68;;;3.25;;
23800;SDS011;12081;48.614;10.226;2023-08-20T16:05:55;3.72;;;2.95;;
23800;SDS011;12081;48.614;10.226;2023-08-20T16:08:39;7.05;;;3.25;;
23800;SDS011;12081;48.614;10.226;2023-08-20T16:11:24;6.65;;;3.05;;
23800;SDS011;12081;48.614;10.226;2023-08-20T16:14:08;6.28;;;2.60;;
23800;SDS011;12081;48.614;10.226;2023-08-20T16:16:54;3.42;;;3.10;;
23800;SDS011;12081;48.614;10.226;2023-08-20T16:19:38;7.63;;;3.20;;
23800;SDS011;12081;48.614;10.226;2023-08-20T16:22:23;5.95;;;2.92;;
23800;SDS011;12081;48.614;10.226;2023-08-20T16:25:07;6.28;;;3.20;;
23800;SDS011;12081;48.614;10.226;2023-08-20T16:27:51;3.88;;;3.13;;
23800;SDS011;12081;48.614;10.226;2023-08-20T16:30:35;6.50;;;3.13;;
23800;SDS011;12081;48.614;10.226;2023-08-20T16:33:21;7.60;;;3.50;;
23800;SDS011;12081;48.614;10.226;2023-08-20T16:36:07;7.22;;;3.30;;
23800;SDS011;12081;48.614;10.226;2023-08-20T16:38:51;6.32;;;2.85;;
23800;SDS011;12081;48.614;10.226;2023-08-20T16:41:37;8.45;;;3.42;;
23800;SDS011;12081;48.614;10.226;2023-08-20T16:44:21;10.07;;;3.53;;
23800;SDS011;12081;48.614;10.226;2023-08-20T16:47:05;6.63;;;3.72;;
23800;SDS011;12081;48.614;10.226;2023-08-20T16:49:49;5.53;;;3.53;;
23800;SDS011;12081;48.614;10.226;2023-08-20T16:52:33;7.22;;;2.72;;
23800;SDS011;12081;48.614;10.226;2023-08-20T16:55:17;5.95;;;3.50;;
23800;SDS011;12081;48.614;10.226;2023-08-20T16:58:01;3.90;;;2.90;;
23800;SDS011;12081;48.614;10.226;2023-08-20T17:00:45;5.13;;;2.83;;
23800;SDS011;12081;48.614;10.226;2023-08-20T17:03:30;7.35;;;3.47;;
23800;SDS011;12081;48.614;10.226;2023-08-20T17:06:14;7.03;;;3.25;;
23800;SDS011;12081;48.614;10.226;2023-08-20T17:08:58;5.13;;;2.85;;
23800;SDS011;12081;48.614;10.226;2023-08-20T17:11:42;9.45;;;3.65;;
23800;SDS011;12081;48.614;10.226;2023-08-20T17:14:26;6.60;;;3.53;;
23800;SDS011;12081;48.614;10.226;2023-08-20T17:17:10;6.68;;;3.47;;
23800;SDS011;12081;48.614;10.226;2023-08-20T17:19:59;5.63;;;3.63;;
23800;SDS011;12081;48.614;10.226;2023-08-20T17:22:43;5.50;;;3.70;;
23800;SDS011;12081;48.614;10.226;2023-08-20T17:25:28;8.30;;;3.72;;
23800;SDS011;12081;48.614;10.226;2023-08-20T17:28:12;6.68;;;3.30;;
23800;SDS011;12081;48.614;10.226;2023-08-20T17:30:56;5.65;;;3.85;;
23800;SDS011;12081;48.614;10.226;2023-08-20T17:33:41;6.43;;;3.78;;
23800;SDS011;12081;48.614;10.226;2023-08-20T17:36:26;4.80;;;3.50;;
23800;SDS011;12081;48.614;10.226;2023-08-20T17:39:10;6.00;;;3.30;;
23800;SDS011;12081;48.614;10.226;2023-08-20T17:41:54;6.47;;;3.53;;
23800;SDS011;12081;48.614;10.226;2023-08-20T17:44:38;6.75;;;3.80;;
23800;SDS011;12081;48.614;10.226;2023-08-20T17:47:22;5.50;;;3.78;;
23800;SDS011;12081;48.614;10.226;2023-08-20T17:50:06;4.85;;;3.70;;
23800;SDS011;12081;48.614;10.226;2023-08-20T17:52:51;8.70;;;3.92;;
23800;SDS011;12081;48.614;10.226;2023-08-20T17:55:35;7.22;;;4.70;;
23800;SDS011;12081;48.614;10.226;2023-08-20T17:58:20;8.93;;;5.03;;
23800;SDS011;12081;48.614;10.226;2023-08-20T18:01:05;8.50;;;5.00;;
23800;SDS011;12081;48.614;10.226;2023-08-20T18:03:47;9.70;;;5.20;;
23800;SDS011;12081;48.614;10.226;2023-08-20T18:06:32;6.70;;;5.22;;
23800;SDS011;12081;48.614;10.226;2023-08-20T18:09:16;11.43;;;5.10;;
23800;SDS011;12081;48.614;10.226;2023-08-20T18:12:00;8.45;;;5.65;;
23800;SDS011;12081;48.614;10.226;2023-08-20T18:14:45;6.70;;;5.05;;
23800;SDS011;12081;48.614;10.226;2023-08-20T18:17:29;9.30;;;5.18;;
23800;SDS011;12081;48.614;10.226;2023-08-20T18:20:13;10.95;;;5.18;;
23800;SDS011;12081;48.614;10.226;2023-08-20T18:22:58;7.00;;;5.53;;
23800;SDS011;12081;48.614;10.226;2023-08-20T18:25:42;7.90;;;5.07;;
23800;SDS011;12081;48.614;10.226;2023-08-20T18:28:27;6.85;;;4.63;;
23800;SDS011;12081;48.614;10.226;2023-08-20T18:31:12;5.60;;;4.68;;
23800;SDS011;12081;48.614;10.226;2023-08-20T18:33:56;6.45;;;5.30;;
23800;SDS011;12081;48.614;10.226;2023-08-20T18:36:40;5.90;;;4.75;;
23800;SDS011;12081;48.614;10.226;2023-08-20T18:39:24;9.45;;;5.18;;
23800;SDS011;12081;48.614;10.226;2023-08-20T18:42:08;7.80;;;5.40;;
23800;SDS011;12081;48.614;10.226;2023-08-20T18:44:52;7.30;;;4.90;;
23800;SDS011;12081;48.614;10.226;2023-08-20T18:47:37;7.25;;;5.45;;
23800;SDS011;12081;48.614;10.226;2023-08-20T18:50:22;10.38;;;5.30;;
23800;SDS011;12081;48.614;10.226;2023-08-20T18:53:06;6.38;;;5.10;;
23800;SDS011;12081;48.614;10.226;2023-08-20T18:55:50;9.75;;;5.60;;
23800;SDS011;12081;48.614;10.226;2023-08-20T18:58:33;8.52;;;5.22;;
23800;SDS011;12081;48.614;10.226;2023-08-20T19:03:42;15.05;;;5.70;;
23800;SDS011;12081;48.614;10.226;2023-08-20T19:06:26;7.20;;;5.40;;
23800;SDS011;12081;48.614;10.226;2023-08-20T19:09:10;5.55;;;4.90;;
23800;SDS011;12081;48.614;10.226;2023-08-20T19:11:54;7.68;;;5.57;;
23800;SDS011;12081;48.614;10.226;2023-08-20T19:14:39;8.80;;;5.53;;
23800;SDS011;12081;48.614;10.226;2023-08-20T19:17:23;8.23;;;5.15;;
23800;SDS011;12081;48.614;10.226;2023-08-20T19:20:07;10.40;;;5.80;;
23800;SDS011;12081;48.614;10.226;2023-08-20T19:22:55;9.38;;;5.70;;
23800;SDS011;12081;48.614;10.226;2023-08-20T19:25:39;7.38;;;5.75;;
23800;SDS011;12081;48.614;10.226;2023-08-20T19:28:23;6.72;;;5.28;;
23800;SDS011;12081;48.614;10.226;2023-08-20T19:31:07;6.65;;;5.25;;
23800;SDS011;12081;48.614;10.226;2023-08-20T19:33:51;9.70;;;5.65;;
23800;SDS011;12081;48.614;10.226;2023-08-20T19:36:36;7.93;;;5.85;;
23800;SDS011;12081;48.614;10.226;2023-08-20T19:39:22;8.18;;;6.03;;
23800;SDS011;12081;48.614;10.226;2023-08-20T19:42:06;8.50;;;5.95;;
23800;SDS011;12081;48.614;10.226;2023-08-20T19:44:52;11.23;;;5.97;;
23800;SDS011;12081;48.614;10.226;2023-08-20T19:47:36;12.95;;;6.32;;
23800;SDS011;12081;48.614;10.226;2023-08-20T19:50:20;8.63;;;5.50;;
23800;SDS011;12081;48.614;10.226;2023-08-20T19:53:05;7.00;;;6.30;;